sensor_id;sensor_type;location;lat;lon;timestamp;temperature;humidity
19928;DHT22;10126;50.876;4.470;2023-04-03T00:00:38;4.40;99.90
19928;DHT22;10126;50.876;4.470;2023-04-03T00:02:39;4.50;99.90
19928;DHT22;10126;50.876;4.470;2023-04-03T00:04:43;4.50;99.90
19928;DHT22;10126;50.876;4.470;2023-04-03T00:06:44;4.50;99.90
19928;DHT22;10126;50.876;4.470;2023-04-03T00:08:44;4.50;99.90
19928;DHT22;10126;50.876;4.470;2023-04-03T00:10:45;4.50;99.90
19928;DHT22;10126;50.876;4.470;2023-04-03T00:12:46;4.60;99.90
19928;DHT22;10126;50.876;4.470;2023-04-03T00:14:46;4.40;99.90
19928;DHT22;10126;50.876;4.470;2023-04-03T00:16:47;4.40;99.90
19928;DHT22;10126;50.876;4.470;2023-04-03T00:18:48;4.50;99.90
19928;DHT22;10126;50.876;4.470;2023-04-03T00:20:49;4.40;99.90
19928;DHT22;10126;50.876;4.470;2023-04-03T00:22:49;4.40;99.90
19928;DHT22;10126;50.876;4.470;2023-04-03T00:24:50;4.50;99.90
19928;DHT22;10126;50.876;4.470;2023-04-03T00:26:51;4.60;99.90
19928;DHT22;10126;50.876;4.470;2023-04-03T00:28:51;4.70;99.90
19928;DHT22;10126;50.876;4.470;2023-04-03T00:30:52;4.60;99.90
19928;DHT22;10126;50.876;4.470;2023-04-03T00:32:53;4.40;99.90
19928;DHT22;10126;50.876;4.470;2023-04-03T00:34:53;4.40;99.90
19928;DHT22;10126;50.876;4.470;2023-04-03T00:36:54;4.30;99.90
19928;DHT22;10126;50.876;4.470;2023-04-03T00:38:55;4.00;99.90
19928;DHT22;10126;50.876;4.470;2023-04-03T00:40:55;3.90;99.90
19928;DHT22;10126;50.876;4.470;2023-04-03T00:43:05;3.70;99.90
19928;DHT22;10126;50.876;4.470;2023-04-03T00:45:25;3.60;99.90
19928;DHT22;10126;50.876;4.470;2023-04-03T00:47:30;3.70;99.90
19928;DHT22;10126;50.876;4.470;2023-04-03T00:49:31;3.70;99.90
19928;DHT22;10126;50.876;4.470;2023-04-03T00:51:35;3.70;99.90
19928;DHT22;10126;50.876;4.470;2023-04-03T00:53:40;3.70;99.90
19928;DHT22;10126;50.876;4.470;2023-04-03T00:55:41;3.80;99.90
19928;DHT22;10126;50.876;4.470;2023-04-03T00:57:44;3.90;99.90
19928;DHT22;10126;50.876;4.470;2023-04-03T00:59:50;3.80;99.90
19928;DHT22;10126;50.876;4.470;2023-04-03T01:01:56;3.70;99.90
19928;DHT22;10126;50.876;4.470;2023-04-03T01:03:59;3.60;99.90
19928;DHT22;10126;50.876;4.470;2023-04-03T01:06:00;3.50;99.90
19928;DHT22;10126;50.876;4.470;2023-04-03T01:08:01;3.50;99.90
19928;DHT22;10126;50.876;4.470;2023-04-03T01:10:06;3.50;99.90
19928;DHT22;10126;50.876;4.470;2023-04-03T01:12:34;3.50;99.90
19928;DHT22;10126;50.876;4.470;2023-04-03T01:14:35;3.10;99.90
19928;DHT22;10126;50.876;4.470;2023-04-03T01:16:35;2.80;99.90
19928;DHT22;10126;50.876;4.470;2023-04-03T01:18:39;2.70;99.90
19928;DHT22;10126;50.876;4.470;2023-04-03T01:25:10;2.70;99.90
19928;DHT22;10126;50.876;4.470;2023-04-03T01:27:11;3.00;99.90
19928;DHT22;10126;50.876;4.470;2023-04-03T01:29:12;3.10;99.90
19928;DHT22;10126;50.876;4.470;2023-04-03T01:33:35;3.00;99.90
19928;DHT22;10126;50.876;4.470;2023-04-03T01:35:37;3.00;99.90
19928;DHT22;10126;50.876;4.470;2023-04-03T01:37:38;3.00;99.90
19928;DHT22;10126;50.876;4.470;2023-04-03T01:39:39;3.00;99.90
19928;DHT22;10126;50.876;4.470;2023-04-03T01:41:39;2.90;99.90
19928;DHT22;10126;50.876;4.470;2023-04-03T01:43:40;2.80;99.90
19928;DHT22;10126;50.876;4.470;2023-04-03T01:45:41;2.70;99.90
19928;DHT22;10126;50.876;4.470;2023-04-03T01:47:42;2.60;99.90
19928;DHT22;10126;50.876;4.470;2023-04-03T01:49:42;2.50;99.90
19928;DHT22;10126;50.876;4.470;2023-04-03T01:51:43;2.60;99.90
19928;DHT22;10126;50.876;4.470;2023-04-03T01:53:44;3.00;99.90
19928;DHT22;10126;50.876;4.470;2023-04-03T01:55:44;3.00;99.90
19928;DHT22;10126;50.876;4.470;2023-04-03T01:57:45;3.10;99.90
19928;DHT22;10126;50.876;4.470;2023-04-03T01:59:46;3.10;99.90
19928;DHT22;10126;50.876;4.470;2023-04-03T02:01:49;3.10;99.90
19928;DHT22;10126;50.876;4.470;2023-04-03T02:03:50;3.30;99.90
19928;DHT22;10126;50.876;4.470;2023-04-03T02:05:51;3.30;99.90
19928;DHT22;10126;50.876;4.470;2023-04-03T02:08:12;3.20;99.90
19928;DHT22;10126;50.876;4.470;2023-04-03T02:10:13;2.80;99.90
19928;DHT22;10126;50.876;4.470;2023-04-03T02:12:14;2.50;99.90
19928;DHT22;10126;50.876;4.470;2023-04-03T02:14:15;2.30;99.90
19928;DHT22;10126;50.876;4.470;2023-04-03T02:16:15;2.40;99.90
19928;DHT22;10126;50.876;4.470;2023-04-03T02:18:17;2.40;99.90
19928;DHT22;10126;50.876;4.470;2023-04-03T02:20:18;2.40;99.90
19928;DHT22;10126;50.876;4.470;2023-04-03T02:22:19;2.50;99.90
19928;DHT22;10126;50.876;4.470;2023-04-03T02:24:20;2.90;99.90
19928;DHT22;10126;50.876;4.470;2023-04-03T02:26:30;3.00;99.90
19928;DHT22;10126;50.876;4.470;2023-04-03T02:28:30;2.80;99.90
19928;DHT22;10126;50.876;4.470;2023-04-03T02:30:31;2.80;99.90
19928;DHT22;10126;50.876;4.470;2023-04-03T02:32:31;2.90;99.90
19928;DHT22;10126;50.876;4.470;2023-04-03T02:34:32;2.90;99.90
19928;DHT22;10126;50.876;4.470;2023-04-03T02:36:33;2.80;99.90
19928;DHT22;10126;50.876;4.470;2023-04-03T02:38:34;2.50;99.90
19928;DHT22;10126;50.876;4.470;2023-04-03T02:40:35;2.40;99.90
19928;DHT22;10126;50.876;4.470;2023-04-03T02:42:36;2.60;99.90
19928;DHT22;10126;50.876;4.470;2023-04-03T02:44:36;2.80;99.90
19928;DHT22;10126;50.876;4.470;2023-04-03T02:46:37;2.50;99.90
19928;DHT22;10126;50.876;4.470;2023-04-03T02:48:37;2.60;99.90
19928;DHT22;10126;50.876;4.470;2023-04-03T02:50:38;2.50;99.90
19928;DHT22;10126;50.876;4.470;2023-04-03T02:52:39;2.50;99.90
19928;DHT22;10126;50.876;4.470;2023-04-03T02:54:39;2.50;99.90
19928;DHT22;10126;50.876;4.470;2023-04-03T02:56:40;2.60;99.90
19928;DHT22;10126;50.876;4.470;2023-04-03T02:58:41;2.50;99.90
19928;DHT22;10126;50.876;4.470;2023-04-03T03:00:42;2.40;99.90
19928;DHT22;10126;50.876;4.470;2023-04-03T03:02:42;2.40;99.90
19928;DHT22;10126;50.876;4.470;2023-04-03T03:04:43;2.40;99.90
19928;DHT22;10126;50.876;4.470;2023-04-03T03:06:43;2.30;99.90
19928;DHT22;10126;50.876;4.470;2023-04-03T03:08:44;2.20;99.90
19928;DHT22;10126;50.876;4.470;2023-04-03T03:10:45;2.40;99.90
19928;DHT22;10126;50.876;4.470;2023-04-03T03:12:46;2.40;99.90
19928;DHT22;10126;50.876;4.470;2023-04-03T03:14:46;2.60;99.90
19928;DHT22;10126;50.876;4.470;2023-04-03T03:16:47;2.70;99.90
19928;DHT22;10126;50.876;4.470;2023-04-03T03:18:48;2.60;99.90
19928;DHT22;10126;50.876;4.470;2023-04-03T03:20:55;2.60;99.90
19928;DHT22;10126;50.876;4.470;2023-04-03T03:22:56;2.40;99.90
19928;DHT22;10126;50.876;4.470;2023-04-03T03:24:57;2.20;99.90
19928;DHT22;10126;50.876;4.470;2023-04-03T03:27:00;2.10;99.90
19928;DHT22;10126;50.876;4.470;2023-04-03T03:29:01;2.20;99.90
19928;DHT22;10126;50.876;4.470;2023-04-03T03:31:02;2.20;99.90
19928;DHT22;10126;50.876;4.470;2023-04-03T03:33:02;2.20;99.90
19928;DHT22;10126;50.876;4.470;2023-04-03T03:35:03;2.20;99.90
19928;DHT22;10126;50.876;4.470;2023-04-03T03:37:04;2.40;99.90
19928;DHT22;10126;50.876;4.470;2023-04-03T03:39:05;2.40;99.90
19928;DHT22;10126;50.876;4.470;2023-04-03T03:41:06;2.40;99.90
19928;DHT22;10126;50.876;4.470;2023-04-03T03:43:06;2.50;99.90
19928;DHT22;10126;50.876;4.470;2023-04-03T03:45:08;2.50;99.90
19928;DHT22;10126;50.876;4.470;2023-04-03T03:47:08;2.40;99.90
19928;DHT22;10126;50.876;4.470;2023-04-03T03:49:11;2.50;99.90
19928;DHT22;10126;50.876;4.470;2023-04-03T03:51:12;2.60;99.90
19928;DHT22;10126;50.876;4.470;2023-04-03T03:53:12;2.60;99.90
19928;DHT22;10126;50.876;4.470;2023-04-03T03:55:13;2.60;99.90
19928;DHT22;10126;50.876;4.470;2023-04-03T03:57:14;2.50;99.90
19928;DHT22;10126;50.876;4.470;2023-04-03T03:59:15;2.50;99.90
19928;DHT22;10126;50.876;4.470;2023-04-03T04:01:18;2.30;99.90
19928;DHT22;10126;50.876;4.470;2023-04-03T04:03:18;2.20;99.90
19928;DHT22;10126;50.876;4.470;2023-04-03T04:05:19;2.20;99.90
19928;DHT22;10126;50.876;4.470;2023-04-03T04:07:20;2.20;99.90
19928;DHT22;10126;50.876;4.470;2023-04-03T04:09:20;2.20;99.90
19928;DHT22;10126;50.876;4.470;2023-04-03T04:11:22;2.40;99.90
19928;DHT22;10126;50.876;4.470;2023-04-03T04:13:23;2.40;99.90
19928;DHT22;10126;50.876;4.470;2023-04-03T04:15:24;2.30;99.90
19928;DHT22;10126;50.876;4.470;2023-04-03T04:17:26;2.40;99.90
19928;DHT22;10126;50.876;4.470;2023-04-03T04:19:26;2.10;99.90
19928;DHT22;10126;50.876;4.470;2023-04-03T04:21:27;2.10;99.90
19928;DHT22;10126;50.876;4.470;2023-04-03T04:23:28;2.40;99.90
19928;DHT22;10126;50.876;4.470;2023-04-03T04:25:28;2.40;99.90
19928;DHT22;10126;50.876;4.470;2023-04-03T04:27:29;2.10;99.90
19928;DHT22;10126;50.876;4.470;2023-04-03T04:29:29;1.80;99.90
19928;DHT22;10126;50.876;4.470;2023-04-03T04:31:35;2.00;99.90
19928;DHT22;10126;50.876;4.470;2023-04-03T04:33:36;2.20;99.90
19928;DHT22;10126;50.876;4.470;2023-04-03T04:35:36;1.90;99.90
19928;DHT22;10126;50.876;4.470;2023-04-03T04:37:37;2.00;99.90
19928;DHT22;10126;50.876;4.470;2023-04-03T04:39:38;1.80;99.90
19928;DHT22;10126;50.876;4.470;2023-04-03T04:41:38;1.70;99.90
19928;DHT22;10126;50.876;4.470;2023-04-03T04:43:39;1.90;99.90
19928;DHT22;10126;50.876;4.470;2023-04-03T04:45:40;1.70;99.90
19928;DHT22;10126;50.876;4.470;2023-04-03T04:47:44;1.80;99.90
19928;DHT22;10126;50.876;4.470;2023-04-03T04:49:44;1.80;99.90
19928;DHT22;10126;50.876;4.470;2023-04-03T04:51:45;1.80;99.90
19928;DHT22;10126;50.876;4.470;2023-04-03T04:53:46;1.70;99.90
19928;DHT22;10126;50.876;4.470;2023-04-03T04:55:46;1.80;99.90
19928;DHT22;10126;50.876;4.470;2023-04-03T04:57:48;1.90;99.90
19928;DHT22;10126;50.876;4.470;2023-04-03T04:59:48;1.70;99.90
19928;DHT22;10126;50.876;4.470;2023-04-03T05:01:49;1.60;99.90
19928;DHT22;10126;50.876;4.470;2023-04-03T05:03:50;1.50;99.90
19928;DHT22;10126;50.876;4.470;2023-04-03T05:05:50;1.50;99.90
19928;DHT22;10126;50.876;4.470;2023-04-03T05:07:51;1.80;99.90
19928;DHT22;10126;50.876;4.470;2023-04-03T05:09:51;1.80;99.90
19928;DHT22;10126;50.876;4.470;2023-04-03T05:11:52;1.80;99.90
19928;DHT22;10126;50.876;4.470;2023-04-03T05:13:53;1.70;99.90
19928;DHT22;10126;50.876;4.470;2023-04-03T05:15:54;1.90;99.90
19928;DHT22;10126;50.876;4.470;2023-04-03T05:17:54;1.70;99.90
19928;DHT22;10126;50.876;4.470;2023-04-03T05:19:55;1.70;99.90
19928;DHT22;10126;50.876;4.470;2023-04-03T05:21:55;1.70;99.90
19928;DHT22;10126;50.876;4.470;2023-04-03T05:23:56;1.80;99.90
19928;DHT22;10126;50.876;4.470;2023-04-03T05:25:57;1.80;99.90
19928;DHT22;10126;50.876;4.470;2023-04-03T05:27:58;1.70;99.90
19928;DHT22;10126;50.876;4.470;2023-04-03T05:29:59;1.70;99.90
19928;DHT22;10126;50.876;4.470;2023-04-03T05:32:00;1.70;99.90
19928;DHT22;10126;50.876;4.470;2023-04-03T05:34:01;1.80;99.90
19928;DHT22;10126;50.876;4.470;2023-04-03T05:36:03;1.90;99.90
19928;DHT22;10126;50.876;4.470;2023-04-03T05:38:05;1.80;99.90
19928;DHT22;10126;50.876;4.470;2023-04-03T05:40:06;1.60;99.90
19928;DHT22;10126;50.876;4.470;2023-04-03T05:42:07;1.60;99.90
19928;DHT22;10126;50.876;4.470;2023-04-03T05:44:08;1.60;99.90
19928;DHT22;10126;50.876;4.470;2023-04-03T05:46:16;1.60;99.90
19928;DHT22;10126;50.876;4.470;2023-04-03T05:48:17;1.90;99.90
19928;DHT22;10126;50.876;4.470;2023-04-03T05:50:18;2.00;99.90
19928;DHT22;10126;50.876;4.470;2023-04-03T05:52:29;2.00;99.90
19928;DHT22;10126;50.876;4.470;2023-04-03T05:54:30;1.90;99.90
19928;DHT22;10126;50.876;4.470;2023-04-03T05:56:31;1.90;99.90
19928;DHT22;10126;50.876;4.470;2023-04-03T05:58:31;1.90;99.90
19928;DHT22;10126;50.876;4.470;2023-04-03T06:00:32;2.10;99.90
19928;DHT22;10126;50.876;4.470;2023-04-03T06:02:32;2.20;99.90
19928;DHT22;10126;50.876;4.470;2023-04-03T06:04:33;2.20;99.90
19928;DHT22;10126;50.876;4.470;2023-04-03T06:06:53;2.30;99.90
19928;DHT22;10126;50.876;4.470;2023-04-03T06:08:55;3.00;99.90
19928;DHT22;10126;50.876;4.470;2023-04-03T06:10:55;4.60;99.90
19928;DHT22;10126;50.876;4.470;2023-04-03T06:12:56;6.20;99.90
19928;DHT22;10126;50.876;4.470;2023-04-03T06:14:57;6.90;99.90
19928;DHT22;10126;50.876;4.470;2023-04-03T06:16:58;7.60;99.90
19928;DHT22;10126;50.876;4.470;2023-04-03T06:18:59;8.20;99.90
19928;DHT22;10126;50.876;4.470;2023-04-03T06:21:00;8.70;99.90
19928;DHT22;10126;50.876;4.470;2023-04-03T06:23:03;9.40;99.90
19928;DHT22;10126;50.876;4.470;2023-04-03T06:25:04;9.90;99.90
19928;DHT22;10126;50.876;4.470;2023-04-03T06:27:05;10.40;99.90
19928;DHT22;10126;50.876;4.470;2023-04-03T06:29:05;10.70;99.90
19928;DHT22;10126;50.876;4.470;2023-04-03T06:31:06;11.80;99.90
19928;DHT22;10126;50.876;4.470;2023-04-03T06:33:07;12.50;99.90
19928;DHT22;10126;50.876;4.470;2023-04-03T06:35:09;13.00;99.90
19928;DHT22;10126;50.876;4.470;2023-04-03T06:37:20;13.70;99.90
19928;DHT22;10126;50.876;4.470;2023-04-03T06:39:22;13.90;99.90
19928;DHT22;10126;50.876;4.470;2023-04-03T06:41:26;14.40;99.90
19928;DHT22;10126;50.876;4.470;2023-04-03T06:43:27;13.20;99.90
19928;DHT22;10126;50.876;4.470;2023-04-03T06:45:27;12.20;99.90
19928;DHT22;10126;50.876;4.470;2023-04-03T06:47:28;11.50;99.90
19928;DHT22;10126;50.876;4.470;2023-04-03T06:49:29;12.50;99.90
19928;DHT22;10126;50.876;4.470;2023-04-03T06:51:30;10.90;99.90
19928;DHT22;10126;50.876;4.470;2023-04-03T06:53:31;10.30;99.90
19928;DHT22;10126;50.876;4.470;2023-04-03T06:55:31;10.40;99.90
19928;DHT22;10126;50.876;4.470;2023-04-03T06:57:32;10.10;99.90
19928;DHT22;10126;50.876;4.470;2023-04-03T06:59:33;10.50;99.90
19928;DHT22;10126;50.876;4.470;2023-04-03T07:01:33;10.60;99.90
19928;DHT22;10126;50.876;4.470;2023-04-03T07:03:34;10.30;99.90
19928;DHT22;10126;50.876;4.470;2023-04-03T07:05:35;9.70;99.90
19928;DHT22;10126;50.876;4.470;2023-04-03T07:07:36;9.00;99.90
19928;DHT22;10126;50.876;4.470;2023-04-03T07:09:38;9.50;99.90
19928;DHT22;10126;50.876;4.470;2023-04-03T07:11:38;8.60;99.90
19928;DHT22;10126;50.876;4.470;2023-04-03T07:13:40;9.50;99.90
19928;DHT22;10126;50.876;4.470;2023-04-03T07:15:40;9.20;99.90
19928;DHT22;10126;50.876;4.470;2023-04-03T07:17:41;9.60;99.90
19928;DHT22;10126;50.876;4.470;2023-04-03T07:19:42;10.60;99.90
19928;DHT22;10126;50.876;4.470;2023-04-03T07:21:42;10.90;99.90
19928;DHT22;10126;50.876;4.470;2023-04-03T07:23:43;10.80;99.90
19928;DHT22;10126;50.876;4.470;2023-04-03T07:25:46;12.50;99.90
19928;DHT22;10126;50.876;4.470;2023-04-03T07:27:46;12.70;99.90
19928;DHT22;10126;50.876;4.470;2023-04-03T07:29:48;12.90;99.90
19928;DHT22;10126;50.876;4.470;2023-04-03T07:31:48;12.20;99.90
19928;DHT22;10126;50.876;4.470;2023-04-03T07:33:49;13.10;99.90
19928;DHT22;10126;50.876;4.470;2023-04-03T07:35:50;13.00;99.90
19928;DHT22;10126;50.876;4.470;2023-04-03T07:37:51;13.80;99.90
19928;DHT22;10126;50.876;4.470;2023-04-03T07:39:51;13.10;99.90
19928;DHT22;10126;50.876;4.470;2023-04-03T07:41:52;13.80;99.90
19928;DHT22;10126;50.876;4.470;2023-04-03T07:43:53;12.90;99.90
19928;DHT22;10126;50.876;4.470;2023-04-03T07:45:54;12.10;99.90
19928;DHT22;10126;50.876;4.470;2023-04-03T07:47:54;11.20;99.90
19928;DHT22;10126;50.876;4.470;2023-04-03T07:49:55;11.10;99.90
19928;DHT22;10126;50.876;4.470;2023-04-03T07:51:57;11.10;99.90
19928;DHT22;10126;50.876;4.470;2023-04-03T07:53:59;10.30;99.90
19928;DHT22;10126;50.876;4.470;2023-04-03T07:55:59;9.20;99.90
19928;DHT22;10126;50.876;4.470;2023-04-03T07:58:00;9.00;99.90
19928;DHT22;10126;50.876;4.470;2023-04-03T08:00:02;9.00;99.90
19928;DHT22;10126;50.876;4.470;2023-04-03T08:02:03;9.10;99.90
19928;DHT22;10126;50.876;4.470;2023-04-03T08:04:05;8.80;99.90
19928;DHT22;10126;50.876;4.470;2023-04-03T08:06:08;8.30;99.90
19928;DHT22;10126;50.876;4.470;2023-04-03T08:08:11;7.70;99.90
19928;DHT22;10126;50.876;4.470;2023-04-03T08:10:12;7.30;99.90
19928;DHT22;10126;50.876;4.470;2023-04-03T08:12:13;7.10;99.90
19928;DHT22;10126;50.876;4.470;2023-04-03T08:14:15;7.10;99.90
19928;DHT22;10126;50.876;4.470;2023-04-03T08:16:21;7.50;99.90
19928;DHT22;10126;50.876;4.470;2023-04-03T08:18:23;7.60;99.90
19928;DHT22;10126;50.876;4.470;2023-04-03T08:20:25;7.40;99.90
19928;DHT22;10126;50.876;4.470;2023-04-03T08:22:26;7.10;99.90
19928;DHT22;10126;50.876;4.470;2023-04-03T08:24:26;6.90;99.90
19928;DHT22;10126;50.876;4.470;2023-04-03T08:26:27;7.40;99.90
19928;DHT22;10126;50.876;4.470;2023-04-03T08:28:28;7.70;99.90
19928;DHT22;10126;50.876;4.470;2023-04-03T08:30:29;8.60;99.90
19928;DHT22;10126;50.876;4.470;2023-04-03T08:32:29;9.10;99.90
19928;DHT22;10126;50.876;4.470;2023-04-03T08:34:30;8.60;99.90
19928;DHT22;10126;50.876;4.470;2023-04-03T08:36:35;8.50;99.90
19928;DHT22;10126;50.876;4.470;2023-04-03T08:38:35;8.40;99.90
19928;DHT22;10126;50.876;4.470;2023-04-03T08:40:38;9.10;99.90
19928;DHT22;10126;50.876;4.470;2023-04-03T08:45:12;9.80;99.90
19928;DHT22;10126;50.876;4.470;2023-04-03T08:49:31;11.00;99.90
19928;DHT22;10126;50.876;4.470;2023-04-03T08:51:32;11.30;99.90
19928;DHT22;10126;50.876;4.470;2023-04-03T08:53:35;11.20;99.90
19928;DHT22;10126;50.876;4.470;2023-04-03T08:55:43;9.90;99.90
19928;DHT22;10126;50.876;4.470;2023-04-03T08:57:45;10.40;99.90
19928;DHT22;10126;50.876;4.470;2023-04-03T08:59:47;10.00;99.90
19928;DHT22;10126;50.876;4.470;2023-04-03T09:01:48;10.10;99.90
19928;DHT22;10126;50.876;4.470;2023-04-03T09:03:49;10.40;99.90
19928;DHT22;10126;50.876;4.470;2023-04-03T09:06:02;11.30;99.90
19928;DHT22;10126;50.876;4.470;2023-04-03T09:08:12;12.30;99.90
19928;DHT22;10126;50.876;4.470;2023-04-03T09:10:16;12.00;99.90
19928;DHT22;10126;50.876;4.470;2023-04-03T09:12:27;12.10;99.90
19928;DHT22;10126;50.876;4.470;2023-04-03T09:14:51;11.50;99.90
19928;DHT22;10126;50.876;4.470;2023-04-03T09:21:38;11.90;99.90
19928;DHT22;10126;50.876;4.470;2023-04-03T09:23:51;11.30;99.90
19928;DHT22;10126;50.876;4.470;2023-04-03T09:25:58;11.30;99.90
19928;DHT22;10126;50.876;4.470;2023-04-03T09:28:01;11.20;99.90
19928;DHT22;10126;50.876;4.470;2023-04-03T09:30:03;11.90;99.90
19928;DHT22;10126;50.876;4.470;2023-04-03T09:32:31;12.10;99.90
19928;DHT22;10126;50.876;4.470;2023-04-03T09:34:36;12.40;99.90
19928;DHT22;10126;50.876;4.470;2023-04-03T09:36:46;12.80;99.90
19928;DHT22;10126;50.876;4.470;2023-04-03T09:39:03;12.30;99.90
19928;DHT22;10126;50.876;4.470;2023-04-03T09:41:14;12.10;99.90
19928;DHT22;10126;50.876;4.470;2023-04-03T09:43:22;13.00;99.90
19928;DHT22;10126;50.876;4.470;2023-04-03T09:47:28;13.70;99.90
19928;DHT22;10126;50.876;4.470;2023-04-03T09:49:29;14.00;99.90
19928;DHT22;10126;50.876;4.470;2023-04-03T09:51:30;13.90;99.90
19928;DHT22;10126;50.876;4.470;2023-04-03T09:53:44;13.60;99.90
19928;DHT22;10126;50.876;4.470;2023-04-03T09:55:45;14.00;99.90
19928;DHT22;10126;50.876;4.470;2023-04-03T09:57:46;13.70;99.90
19928;DHT22;10126;50.876;4.470;2023-04-03T10:00:00;14.20;99.90
19928;DHT22;10126;50.876;4.470;2023-04-03T10:02:37;14.40;99.90
19928;DHT22;10126;50.876;4.470;2023-04-03T10:04:40;15.30;99.90
19928;DHT22;10126;50.876;4.470;2023-04-03T10:06:43;15.10;99.90
19928;DHT22;10126;50.876;4.470;2023-04-03T10:08:59;15.00;99.90
19928;DHT22;10126;50.876;4.470;2023-04-03T10:11:17;13.20;99.90
19928;DHT22;10126;50.876;4.470;2023-04-03T10:13:20;12.00;99.90
19928;DHT22;10126;50.876;4.470;2023-04-03T10:15:24;11.40;99.90
19928;DHT22;10126;50.876;4.470;2023-04-03T10:17:32;10.90;99.90
19928;DHT22;10126;50.876;4.470;2023-04-03T10:19:45;9.80;99.90
19928;DHT22;10126;50.876;4.470;2023-04-03T10:24:36;8.80;99.90
19928;DHT22;10126;50.876;4.470;2023-04-03T10:27:02;9.30;99.90
19928;DHT22;10126;50.876;4.470;2023-04-03T10:32:30;9.40;99.90
19928;DHT22;10126;50.876;4.470;2023-04-03T10:34:28;9.30;99.90
19928;DHT22;10126;50.876;4.470;2023-04-03T10:36:35;8.90;99.90
19928;DHT22;10126;50.876;4.470;2023-04-03T10:38:55;9.10;99.90
19928;DHT22;10126;50.876;4.470;2023-04-03T10:41:04;9.20;99.90
19928;DHT22;10126;50.876;4.470;2023-04-03T10:43:21;8.90;99.90
19928;DHT22;10126;50.876;4.470;2023-04-03T10:46:00;8.80;99.90
19928;DHT22;10126;50.876;4.470;2023-04-03T10:50:37;8.90;99.90
19928;DHT22;10126;50.876;4.470;2023-04-03T10:52:47;9.00;99.90
19928;DHT22;10126;50.876;4.470;2023-04-03T10:55:14;9.00;99.90
19928;DHT22;10126;50.876;4.470;2023-04-03T10:57:24;8.90;99.90
19928;DHT22;10126;50.876;4.470;2023-04-03T10:59:30;8.90;99.90
19928;DHT22;10126;50.876;4.470;2023-04-03T11:01:37;8.80;99.90
19928;DHT22;10126;50.876;4.470;2023-04-03T11:03:45;8.70;99.90
19928;DHT22;10126;50.876;4.470;2023-04-03T11:05:50;9.00;99.90
19928;DHT22;10126;50.876;4.470;2023-04-03T11:07:53;9.30;99.90
19928;DHT22;10126;50.876;4.470;2023-04-03T11:10:02;9.40;99.90
19928;DHT22;10126;50.876;4.470;2023-04-03T11:14:38;9.50;99.90
19928;DHT22;10126;50.876;4.470;2023-04-03T11:16:43;9.60;99.90
19928;DHT22;10126;50.876;4.470;2023-04-03T11:19:11;9.70;99.90
19928;DHT22;10126;50.876;4.470;2023-04-03T11:21:27;9.60;99.90
19928;DHT22;10126;50.876;4.470;2023-04-03T11:23:36;9.20;99.90
19928;DHT22;10126;50.876;4.470;2023-04-03T11:25:38;8.90;99.90
19928;DHT22;10126;50.876;4.470;2023-04-03T11:29:57;9.40;99.90
19928;DHT22;10126;50.876;4.470;2023-04-03T11:34:44;9.90;99.90
19928;DHT22;10126;50.876;4.470;2023-04-03T11:36:48;9.60;99.90
19928;DHT22;10126;50.876;4.470;2023-04-03T11:38:55;9.30;99.90
19928;DHT22;10126;50.876;4.470;2023-04-03T11:40:57;9.20;99.90
19928;DHT22;10126;50.876;4.470;2023-04-03T11:43:24;9.20;99.90
19928;DHT22;10126;50.876;4.470;2023-04-03T11:45:49;9.10;99.90
19928;DHT22;10126;50.876;4.470;2023-04-03T11:47:59;8.90;99.90
19928;DHT22;10126;50.876;4.470;2023-04-03T11:50:05;9.00;99.90
19928;DHT22;10126;50.876;4.470;2023-04-03T11:52:10;9.10;99.90
19928;DHT22;10126;50.876;4.470;2023-04-03T11:54:43;9.40;99.90
19928;DHT22;10126;50.876;4.470;2023-04-03T11:56:45;9.60;99.90
19928;DHT22;10126;50.876;4.470;2023-04-03T12:01:11;9.60;99.90
19928;DHT22;10126;50.876;4.470;2023-04-03T12:05:27;9.40;99.90
19928;DHT22;10126;50.876;4.470;2023-04-03T12:07:29;9.20;99.90
19928;DHT22;10126;50.876;4.470;2023-04-03T12:11:32;9.30;99.90
19928;DHT22;10126;50.876;4.470;2023-04-03T12:13:35;9.50;99.90
19928;DHT22;10126;50.876;4.470;2023-04-03T12:17:38;9.80;99.90
19928;DHT22;10126;50.876;4.470;2023-04-03T12:19:39;9.80;99.90
19928;DHT22;10126;50.876;4.470;2023-04-03T12:26:47;9.80;99.90
19928;DHT22;10126;50.876;4.470;2023-04-03T12:28:46;9.50;99.90
19928;DHT22;10126;50.876;4.470;2023-04-03T12:30:49;9.20;99.90
19928;DHT22;10126;50.876;4.470;2023-04-03T12:33:04;9.40;99.90
19928;DHT22;10126;50.876;4.470;2023-04-03T12:35:29;9.60;99.90
19928;DHT22;10126;50.876;4.470;2023-04-03T12:39:48;9.80;99.90
19928;DHT22;10126;50.876;4.470;2023-04-03T12:45:22;9.70;99.90
19928;DHT22;10126;50.876;4.470;2023-04-03T12:47:29;9.60;99.90
19928;DHT22;10126;50.876;4.470;2023-04-03T12:49:39;9.40;99.90
19928;DHT22;10126;50.876;4.470;2023-04-03T12:51:42;9.50;99.90
19928;DHT22;10126;50.876;4.470;2023-04-03T12:53:44;9.40;99.90
19928;DHT22;10126;50.876;4.470;2023-04-03T12:55:45;9.50;99.90
19928;DHT22;10126;50.876;4.470;2023-04-03T12:57:46;9.70;99.90
19928;DHT22;10126;50.876;4.470;2023-04-03T12:59:48;9.70;99.90
19928;DHT22;10126;50.876;4.470;2023-04-03T13:01:59;9.80;99.90
19928;DHT22;10126;50.876;4.470;2023-04-03T13:04:00;9.70;99.90
19928;DHT22;10126;50.876;4.470;2023-04-03T13:06:02;9.50;99.90
19928;DHT22;10126;50.876;4.470;2023-04-03T13:08:09;9.50;99.90
19928;DHT22;10126;50.876;4.470;2023-04-03T13:12:13;9.70;99.90
19928;DHT22;10126;50.876;4.470;2023-04-03T13:14:18;9.80;99.90
19928;DHT22;10126;50.876;4.470;2023-04-03T13:16:19;9.80;99.90
19928;DHT22;10126;50.876;4.470;2023-04-03T13:20:32;9.60;99.90
19928;DHT22;10126;50.876;4.470;2023-04-03T13:22:39;9.80;99.90
19928;DHT22;10126;50.876;4.470;2023-04-03T13:24:44;9.50;99.90
19928;DHT22;10126;50.876;4.470;2023-04-03T13:26:47;9.40;99.90
19928;DHT22;10126;50.876;4.470;2023-04-03T13:28:48;9.40;99.90
19928;DHT22;10126;50.876;4.470;2023-04-03T13:31:04;9.70;99.90
19928;DHT22;10126;50.876;4.470;2023-04-03T13:33:20;9.90;99.90
19928;DHT22;10126;50.876;4.470;2023-04-03T13:35:27;10.20;99.90
19928;DHT22;10126;50.876;4.470;2023-04-03T13:37:31;10.00;99.90
19928;DHT22;10126;50.876;4.470;2023-04-03T13:39:37;9.70;99.90
19928;DHT22;10126;50.876;4.470;2023-04-03T13:41:41;9.60;99.90
19928;DHT22;10126;50.876;4.470;2023-04-03T13:43:42;9.80;99.90
19928;DHT22;10126;50.876;4.470;2023-04-03T13:45:59;9.70;99.90
19928;DHT22;10126;50.876;4.470;2023-04-03T13:48:26;9.80;99.90
19928;DHT22;10126;50.876;4.470;2023-04-03T13:50:27;10.00;99.90
19928;DHT22;10126;50.876;4.470;2023-04-03T13:52:40;10.10;99.90
19928;DHT22;10126;50.876;4.470;2023-04-03T13:54:41;9.90;99.90
19928;DHT22;10126;50.876;4.470;2023-04-03T13:56:42;9.60;99.90
19928;DHT22;10126;50.876;4.470;2023-04-03T13:58:54;9.60;99.90
19928;DHT22;10126;50.876;4.470;2023-04-03T14:03:22;9.70;99.90
19928;DHT22;10126;50.876;4.470;2023-04-03T14:05:24;9.70;99.90
19928;DHT22;10126;50.876;4.470;2023-04-03T14:07:26;9.70;99.90
19928;DHT22;10126;50.876;4.470;2023-04-03T14:09:29;9.50;99.90
19928;DHT22;10126;50.876;4.470;2023-04-03T14:11:30;9.80;99.90